Time;durP1;ratioP1;P1;durP2;ratioP2;P2;SDS_P1;SDS_P2;PMS_P1;PMS_P2;Temp;Humidity;BMP_temperature;BMP_pressure;BME280_temperature;BME280_humidity;BME280_pressure;Samples;Min_cycle;Max_cycle;Signal;HPM_P1;HPM_P2
2021/09/29 00:00:35;;;;;;;5.23;2.53;;;16.30;99.90;;;;;;5062442;28;20475;-41
2021/09/29 00:03:09;;;;;;;2.33;1.50;;;16.20;99.90;;;;;;5066053;28;20580;-42
2021/09/29 00:05:40;;;;;;;2.07;1.30;;;15.90;99.90;;;;;;5073555;28;21085;-42
2021/09/29 00:08:12;;;;;;;2.07;1.43;;;15.70;99.90;;;;;;5082020;28;20982;-43
2021/09/29 00:10:53;;;;;;;1.60;1.50;;;15.50;99.90;;;;;;5083088;28;20458;-42
2021/09/29 00:13:27;;;;;;;2.00;1.30;;;15.40;99.90;;;;;;5083193;28;20448;-43
2021/09/29 00:15:59;;;;;;;2.83;1.33;;;15.50;99.90;;;;;;5082963;28;20454;-42
2021/09/29 00:18:30;;;;;;;2.13;1.93;;;15.50;99.90;;;;;;5082399;28;20516;-42
2021/09/29 00:21:00;;;;;;;3.60;1.70;;;15.50;99.90;;;;;;5083722;28;20439;-42
2021/09/29 00:23:31;;;;;;;2.90;1.60;;;15.50;99.90;;;;;;5083425;28;20475;-42
2021/09/29 00:26:04;;;;;;;4.50;2.07;;;15.50;99.90;;;;;;5083165;28;20447;-42
2021/09/29 00:28:35;;;;;;;2.67;1.70;;;15.50;99.90;;;;;;5073595;28;20542;-42
2021/09/29 00:31:11;;;;;;;3.97;2.57;;;15.50;99.90;;;;;;5062843;28;20463;-42
2021/09/29 00:33:46;;;;;;;6.03;2.10;;;15.40;99.90;;;;;;5062671;28;20496;-42
2021/09/29 00:36:17;;;;;;;2.60;1.97;;;15.50;99.90;;;;;;5063233;28;20478;-41
2021/09/29 00:38:50;;;;;;;4.07;1.73;;;15.50;99.90;;;;;;5062514;28;20459;-42
2021/09/29 00:41:23;;;;;;;4.10;2.10;;;15.70;99.90;;;;;;5062799;28;20464;-42
2021/09/29 00:43:54;;;;;;;3.33;1.93;;;15.60;99.90;;;;;;5062862;28;20499;-42
2021/09/29 00:46:25;;;;;;;4.13;2.07;;;15.50;99.90;;;;;;5062219;28;20441;-42
2021/09/29 00:48:56;;;;;;;4.00;2.23;;;15.50;99.90;;;;;;5062326;28;20554;-42
2021/09/29 00:51:27;;;;;;;4.80;2.17;;;15.40;99.90;;;;;;5062890;28;20490;-42
2021/09/29 00:53:58;;;;;;;6.87;2.87;;;15.30;99.90;;;;;;5062822;28;20452;-42
2021/09/29 00:56:31;;;;;;;5.97;3.00;;;15.20;99.90;;;;;;5073643;28;20496;-42
2021/09/29 00:59:02;;;;;;;5.00;2.50;;;15.30;99.90;;;;;;5086633;28;20947;-42
2021/09/29 01:01:34;;;;;;;4.20;2.70;;;15.30;99.90;;;;;;5085479;28;20475;-42
2021/09/29 01:04:26;;;;;;;3.50;2.93;;;15.50;99.90;;;;;;5074829;28;20444;-42
2021/09/29 01:07:06;;;;;;;3.93;2.80;;;15.50;99.90;;;;;;5076949;28;20487;-42
2021/09/29 01:09:45;;;;;;;5.23;2.70;;;15.50;99.90;;;;;;5068100;28;20456;-42
2021/09/29 01:12:25;;;;;;;2.63;2.20;;;15.50;99.90;;;;;;5081548;28;20452;-41
2021/09/29 01:15:02;;;;;;;4.93;2.63;;;15.40;99.90;;;;;;5086164;28;20451;-41
2021/09/29 01:17:35;;;;;;;5.47;2.70;;;15.40;99.90;;;;;;5085652;28;20475;-42
2021/09/29 01:20:09;;;;;;;5.57;2.70;;;15.30;99.90;;;;;;5085434;28;20443;-41
2021/09/29 01:23:06;;;;;;;7.30;2.80;;;15.30;99.90;;;;;;5083895;28;20482;-41
2021/09/29 01:25:46;;;;;;;6.10;3.30;;;15.10;99.90;;;;;;5084348;28;20451;-42
2021/09/29 01:28:21;;;;;;;4.07;2.17;;;15.00;99.90;;;;;;5078138;28;20492;-42
2021/09/29 01:30:52;;;;;;;6.80;3.27;;;14.90;99.90;;;;;;5065940;28;20451;-41
2021/09/29 01:33:24;;;;;;;3.47;2.00;;;14.80;99.90;;;;;;5065513;28;20448;-42
2021/09/29 01:35:55;;;;;;;4.90;2.37;;;14.70;99.90;;;;;;5069200;28;20448;-42
2021/09/29 01:38:26;;;;;;;5.07;2.40;;;14.50;99.90;;;;;;5081628;28;20451;-42
2021/09/29 01:41:00;;;;;;;6.77;3.17;;;14.40;99.90;;;;;;5074791;28;20457;-43
2021/09/29 01:43:32;;;;;;;5.97;2.27;;;14.20;99.90;;;;;;5065608;28;20432;-42
2021/09/29 01:46:06;;;;;;;7.93;3.03;;;14.10;99.90;;;;;;5066531;28;20551;-42
2021/09/29 01:48:49;;;;;;;4.03;3.27;;;14.10;99.90;;;;;;5064881;28;20522;-41
2021/09/29 01:51:22;;;;;;;5.33;3.10;;;13.90;99.90;;;;;;5065423;28;20459;-40
2021/09/29 01:53:57;;;;;;;5.33;2.97;;;13.90;99.90;;;;;;5065488;28;20958;-42
2021/09/29 01:56:28;;;;;;;6.53;3.00;;;13.70;99.90;;;;;;5073740;28;20482;-43
2021/09/29 01:59:04;;;;;;;7.00;3.20;;;13.70;99.90;;;;;;5085139;28;20447;-43
2021/09/29 02:01:40;;;;;;;5.80;3.00;;;13.70;99.90;;;;;;5084757;28;20516;-43
2021/09/29 02:04:15;;;;;;;5.33;3.27;;;13.70;99.90;;;;;;5078272;28;20782;-41
2021/09/29 02:06:47;;;;;;;7.20;3.90;;;13.50;99.90;;;;;;5064036;28;20486;-42
2021/09/29 02:09:19;;;;;;;5.63;3.90;;;13.50;99.90;;;;;;5064883;28;20796;-42
2021/09/29 02:11:50;;;;;;;7.83;4.07;;;13.40;99.90;;;;;;5062962;28;20480;-41
2021/09/29 02:14:24;;;;;;;5.17;3.63;;;13.40;99.90;;;;;;5065014;28;20448;-42
2021/09/29 02:17:00;;;;;;;6.40;3.37;;;13.40;99.90;;;;;;5066084;28;20449;-42
2021/09/29 02:19:31;;;;;;;6.17;3.47;;;13.50;99.90;;;;;;5073426;28;20482;-41
2021/09/29 02:22:02;;;;;;;8.20;3.90;;;13.50;99.90;;;;;;5085069;28;20466;-41
2021/09/29 02:24:33;;;;;;;6.00;3.43;;;13.40;99.90;;;;;;5068293;28;20455;-41
2021/09/29 02:27:04;;;;;;;5.00;3.30;;;13.50;99.90;;;;;;5064994;28;20881;-41
2021/09/29 02:29:37;;;;;;;5.10;3.03;;;13.50;99.90;;;;;;5064510;28;20542;-41
2021/09/29 02:32:09;;;;;;;3.57;3.23;;;13.60;99.90;;;;;;5071630;28;20475;-41
2021/09/29 02:34:39;;;;;;;6.50;4.10;;;13.50;99.90;;;;;;5083038;28;20712;-41
2021/09/29 02:37:10;;;;;;;6.67;3.90;;;13.40;99.90;;;;;;5084749;28;20447;-41
2021/09/29 02:39:41;;;;;;;5.50;3.80;;;13.50;99.90;;;;;;5072382;28;20448;-41
2021/09/29 02:42:12;;;;;;;4.87;3.53;;;13.50;99.90;;;;;;5065794;28;20479;-41
2021/09/29 02:44:45;;;;;;;6.37;5.10;;;13.60;99.90;;;;;;5067930;28;20444;-41
2021/09/29 02:47:16;;;;;;;7.43;5.00;;;13.60;99.90;;;;;;5079179;28;20523;-41
2021/09/29 02:49:47;;;;;;;7.20;6.43;;;13.50;99.90;;;;;;5077309;28;20594;-41
2021/09/29 02:52:18;;;;;;;11.50;8.43;;;13.50;99.90;;;;;;5079634;28;20452;-41
2021/09/29 02:54:49;;;;;;;9.47;8.07;;;13.60;99.90;;;;;;5072394;28;20444;-41
2021/09/29 02:57:20;;;;;;;9.83;8.33;;;13.50;99.90;;;;;;5079610;28;20582;-41
2021/09/29 02:59:53;;;;;;;12.97;8.50;;;13.50;99.90;;;;;;5083800;28;20447;-41
2021/09/29 03:02:24;;;;;;;9.70;8.00;;;13.50;99.90;;;;;;5083062;28;20479;-41
2021/09/29 03:04:55;;;;;;;9.43;7.73;;;13.50;99.90;;;;;;5064435;28;20511;-41
2021/09/29 03:07:26;;;;;;;11.63;6.33;;;13.40;99.90;;;;;;5064706;28;20491;-41
2021/09/29 03:09:57;;;;;;;11.60;7.20;;;13.40;99.90;;;;;;5066903;28;20492;-42
2021/09/29 03:12:28;;;;;;;8.20;6.87;;;13.30;99.90;;;;;;5083636;28;20470;-42
2021/09/29 03:15:01;;;;;;;9.90;6.43;;;13.30;99.90;;;;;;5064995;28;20452;-41
2021/09/29 03:17:32;;;;;;;7.20;5.20;;;13.30;99.90;;;;;;5063236;28;20499;-41
2021/09/29 03:20:06;;;;;;;8.50;6.43;;;13.30;99.90;;;;;;5075058;28;20485;-41
2021/09/29 03:22:37;;;;;;;7.37;5.30;;;13.20;99.90;;;;;;5063927;28;20574;-41
2021/09/29 03:25:09;;;;;;;6.93;6.23;;;13.10;99.90;;;;;;5070049;28;20454;-41
2021/09/29 03:27:40;;;;;;;7.90;5.77;;;13.00;99.90;;;;;;5068231;28;20523;-41
2021/09/29 03:30:14;;;;;;;10.97;6.60;;;12.80;99.90;;;;;;5063896;28;20539;-41
2021/09/29 03:32:45;;;;;;;9.47;7.97;;;12.80;99.90;;;;;;5077169;28;20457;-41
2021/09/29 03:35:16;;;;;;;8.07;6.60;;;12.80;99.90;;;;;;5078700;28;20494;-41
2021/09/29 03:37:47;;;;;;;5.60;5.00;;;12.80;99.90;;;;;;5071781;28;20447;-41
2021/09/29 03:40:19;;;;;;;10.20;6.40;;;12.80;99.90;;;;;;5070218;28;20468;-41
2021/09/29 03:42:50;;;;;;;5.17;3.97;;;12.80;99.90;;;;;;5082959;28;20440;-41
2021/09/29 03:45:22;;;;;;;8.27;4.57;;;12.70;99.90;;;;;;5072947;28;20497;-41
2021/09/29 03:47:54;;;;;;;7.67;4.57;;;12.60;99.90;;;;;;5079170;28;20493;-41
2021/09/29 03:50:26;;;;;;;5.10;4.37;;;12.40;99.90;;;;;;5081109;28;20490;-41
2021/09/29 03:52:59;;;;;;;5.10;4.43;;;12.40;99.90;;;;;;5068601;28;20444;-41
2021/09/29 03:55:30;;;;;;;5.93;4.40;;;12.40;99.90;;;;;;5063557;28;20763;-41
2021/09/29 03:58:01;;;;;;;6.00;4.77;;;12.40;99.90;;;;;;5077725;28;20449;-40
2021/09/29 04:00:34;;;;;;;7.73;5.17;;;12.40;99.90;;;;;;5063478;28;20487;-41
2021/09/29 04:03:07;;;;;;;6.50;5.27;;;12.40;99.90;;;;;;5069260;28;20500;-41
2021/09/29 04:05:38;;;;;;;6.80;4.67;;;12.50;99.90;;;;;;5068527;28;20832;-40
2021/09/29 04:08:11;;;;;;;6.30;5.67;;;12.50;99.90;;;;;;5066224;28;20479;-41
2021/09/29 04:10:43;;;;;;;6.90;5.00;;;12.60;99.90;;;;;;5082671;28;20483;-41
2021/09/29 04:13:14;;;;;;;7.23;5.40;;;12.60;99.90;;;;;;5082275;28;20509;-41
2021/09/29 04:15:46;;;;;;;7.13;5.07;;;12.60;99.90;;;;;;5081265;28;20439;-41
2021/09/29 04:18:17;;;;;;;5.30;4.53;;;12.50;99.90;;;;;;5072473;28;20444;-41
2021/09/29 04:20:48;;;;;;;6.73;4.80;;;12.60;99.90;;;;;;5082413;28;20443;-41
2021/09/29 04:23:22;;;;;;;5.30;4.03;;;12.60;99.90;;;;;;5077868;28;20451;-41
2021/09/29 04:25:54;;;;;;;9.17;5.60;;;12.50;99.90;;;;;;5068831;28;20449;-41
2021/09/29 04:28:28;;;;;;;10.90;6.00;;;12.50;99.90;;;;;;5069388;28;20495;-41
2021/09/29 04:31:02;;;;;;;8.30;7.10;;;12.50;99.90;;;;;;5067548;28;20611;-41
2021/09/29 04:33:34;;;;;;;8.93;6.63;;;12.50;99.90;;;;;;5082258;28;20474;-41
2021/09/29 04:36:07;;;;;;;7.67;5.70;;;12.40;99.90;;;;;;5086641;28;20448;-41
2021/09/29 04:38:38;;;;;;;8.10;5.60;;;12.20;99.90;;;;;;5077555;28;20537;-41
2021/09/29 04:41:10;;;;;;;8.60;5.70;;;12.10;99.90;;;;;;5066104;28;20452;-41
2021/09/29 04:43:41;;;;;;;6.10;5.50;;;12.10;99.90;;;;;;5066824;28;20573;-41
2021/09/29 04:46:14;;;;;;;7.90;4.77;;;12.00;99.90;;;;;;5067268;28;20463;-41
2021/09/29 04:48:45;;;;;;;7.73;5.47;;;12.10;99.90;;;;;;5077058;28;20448;-41
2021/09/29 04:51:16;;;;;;;5.97;5.37;;;12.00;99.90;;;;;;5086088;28;20494;-41
2021/09/29 04:53:47;;;;;;;10.07;5.43;;;12.00;99.90;;;;;;5083778;28;20463;-41
2021/09/29 04:56:18;;;;;;;7.70;4.90;;;11.90;99.90;;;;;;5071858;28;20451;-41
2021/09/29 04:58:49;;;;;;;8.87;5.00;;;11.90;99.90;;;;;;5075063;28;20487;-41
2021/09/29 05:01:25;;;;;;;9.37;4.80;;;11.90;99.90;;;;;;5064989;28;20518;-41
2021/09/29 05:04:23;;;;;;;6.40;4.17;;;11.90;99.90;;;;;;5066158;28;20452;-41
2021/09/29 05:06:55;;;;;;;7.77;4.73;;;11.90;99.90;;;;;;5066447;28;20435;-41
2021/09/29 05:09:27;;;;;;;6.33;4.63;;;11.80;99.90;;;;;;5070882;28;20463;-41
2021/09/29 05:12:06;;;;;;;4.50;4.10;;;11.70;99.90;;;;;;5065381;28;20480;-41
2021/09/29 05:14:37;;;;;;;5.93;4.47;;;11.70;99.90;;;;;;5083104;28;20554;-41
2021/09/29 05:17:09;;;;;;;6.87;4.20;;;11.70;99.90;;;;;;5085310;28;20500;-41
2021/09/29 05:19:40;;;;;;;5.00;4.10;;;11.70;99.90;;;;;;5067713;28;20484;-41
2021/09/29 05:22:11;;;;;;;9.07;4.67;;;11.70;99.90;;;;;;5070065;28;20444;-41
2021/09/29 05:24:45;;;;;;;10.00;4.83;;;11.60;99.90;;;;;;5078893;28;20443;-41
2021/09/29 05:27:16;;;;;;;7.00;4.73;;;11.70;99.90;;;;;;5065800;28;20546;-41
2021/09/29 05:29:49;;;;;;;5.17;4.40;;;11.80;99.90;;;;;;5074497;28;20455;-42
2021/09/29 05:32:22;;;;;;;11.83;5.23;;;11.80;99.90;;;;;;5083290;28;20473;-42
2021/09/29 05:34:53;;;;;;;4.87;4.37;;;11.90;99.90;;;;;;5072121;28;20473;-42
2021/09/29 05:37:24;;;;;;;10.50;6.10;;;11.80;99.90;;;;;;5081460;28;20478;-41
2021/09/29 05:39:55;;;;;;;6.73;6.00;;;11.80;99.90;;;;;;5085961;28;20458;-41
2021/09/29 05:42:26;;;;;;;7.47;4.73;;;11.70;99.90;;;;;;5084744;28;21048;-40
2021/09/29 05:44:59;;;;;;;6.43;5.33;;;11.70;99.90;;;;;;5085511;28;20451;-41
2021/09/29 05:47:32;;;;;;;7.40;6.13;;;11.80;99.90;;;;;;5071548;28;20456;-41
2021/09/29 05:50:03;;;;;;;7.33;5.40;;;11.70;99.90;;;;;;5065218;28;20479;-41
2021/09/29 05:52:34;;;;;;;10.63;6.20;;;11.70;99.90;;;;;;5066702;28;20885;-41
2021/09/29 05:55:06;;;;;;;8.37;5.60;;;11.70;99.90;;;;;;5065498;28;20506;-41
2021/09/29 05:57:41;;;;;;;7.60;5.90;;;11.70;99.90;;;;;;5083346;28;20489;-41
2021/09/29 06:00:13;;;;;;;12.67;6.57;;;11.60;99.90;;;;;;5085205;28;20774;-41
2021/09/29 06:02:45;;;;;;;7.23;6.50;;;11.60;99.90;;;;;;5083656;28;20471;-42
2021/09/29 06:05:17;;;;;;;11.70;6.90;;;11.50;99.90;;;;;;5081959;28;21659;-40
2021/09/29 06:07:49;;;;;;;8.83;7.10;;;11.30;99.90;;;;;;5084582;28;20506;-40
2021/09/29 06:10:20;;;;;;;11.23;10.03;;;11.30;99.90;;;;;;5084940;28;20506;-41
2021/09/29 06:12:50;;;;;;;13.87;10.67;;;11.30;99.90;;;;;;5083703;28;20486;-40
2021/09/29 06:15:27;;;;;;;13.17;10.80;;;11.20;99.90;;;;;;5084357;28;20448;-40
2021/09/29 06:18:02;;;;;;;11.63;9.60;;;11.20;99.90;;;;;;5076336;28;20455;-41
2021/09/29 06:20:35;;;;;;;14.33;9.93;;;11.20;99.90;;;;;;5064651;28;20487;-42
2021/09/29 06:23:06;;;;;;;11.50;8.73;;;11.20;99.90;;;;;;5068739;28;20455;-42
2021/09/29 06:25:40;;;;;;;10.27;8.67;;;11.10;99.90;;;;;;5075236;28;20593;-42
2021/09/29 06:28:11;;;;;;;8.77;7.87;;;11.10;99.90;;;;;;5069025;28;20484;-42
2021/09/29 06:30:42;;;;;;;10.40;9.30;;;11.10;99.90;;;;;;5082330;28;20526;-41
2021/09/29 06:33:17;;;;;;;9.80;8.60;;;11.10;99.90;;;;;;5082534;28;20494;-41
2021/09/29 06:35:52;;;;;;;10.73;8.70;;;11.10;99.90;;;;;;5084121;28;20447;-40
2021/09/29 06:38:22;;;;;;;8.67;7.70;;;11.10;99.90;;;;;;5084836;28;20428;-40
2021/09/29 06:40:58;;;;;;;10.00;7.70;;;11.10;99.90;;;;;;5084697;28;20419;-41
2021/09/29 06:43:29;;;;;;;10.27;8.53;;;11.10;99.90;;;;;;5082528;28;20452;-40
2021/09/29 06:46:03;;;;;;;12.97;8.47;;;11.10;99.90;;;;;;5072884;28;20459;-41
2021/09/29 06:48:35;;;;;;;9.33;7.40;;;11.10;99.90;;;;;;5078113;28;20451;-40
2021/09/29 06:51:06;;;;;;;7.47;6.70;;;11.10;99.90;;;;;;5084265;28;20558;-41
2021/09/29 06:53:37;;;;;;;8.03;6.80;;;11.00;99.90;;;;;;5074977;28;20470;-41
2021/09/29 06:56:12;;;;;;;9.47;6.30;;;11.00;99.90;;;;;;5069565;28;20849;-40
2021/09/29 06:58:44;;;;;;;8.07;6.17;;;11.00;99.90;;;;;;5066308;28;20486;-41
2021/09/29 07:01:15;;;;;;;10.70;7.37;;;11.00;99.90;;;;;;5079084;28;20459;-40
2021/09/29 07:03:49;;;;;;;9.57;6.33;;;11.00;99.90;;;;;;5067237;28;20452;-41
2021/09/29 07:06:20;;;;;;;11.20;6.60;;;11.00;99.90;;;;;;5065828;28;20456;-41
2021/09/29 07:08:51;;;;;;;8.80;6.80;;;11.00;99.90;;;;;;5083941;28;20454;-41
2021/09/29 07:11:22;;;;;;;8.73;6.97;;;11.10;99.90;;;;;;5084239;28;20493;-41
2021/09/29 07:13:53;;;;;;;10.77;6.90;;;11.10;99.90;;;;;;5083715;28;20448;-41
2021/09/29 07:16:25;;;;;;;7.63;6.57;;;11.10;99.90;;;;;;5083257;28;20439;-41
2021/09/29 07:19:01;;;;;;;10.30;7.10;;;11.10;99.90;;;;;;5083616;28;20526;-41
2021/09/29 07:21:33;;;;;;;8.10;6.50;;;11.10;99.90;;;;;;5082976;28;20447;-41
2021/09/29 07:24:04;;;;;;;7.23;6.53;;;11.10;99.90;;;;;;5083756;28;20793;-41
2021/09/29 07:26:35;;;;;;;9.83;6.90;;;11.10;99.90;;;;;;5083120;28;20439;-41
2021/09/29 07:29:09;;;;;;;9.47;6.67;;;11.10;99.90;;;;;;5083825;28;20510;-41
2021/09/29 07:31:41;;;;;;;8.63;6.60;;;11.20;99.90;;;;;;5082932;28;20515;-41
2021/09/29 07:34:13;;;;;;;11.80;7.90;;;11.20;99.90;;;;;;5082988;28;20466;-41
2021/09/29 07:36:44;;;;;;;9.23;6.83;;;11.20;99.90;;;;;;5083429;28;20454;-41
2021/09/29 07:39:15;;;;;;;8.50;7.30;;;11.20;99.90;;;;;;5083629;28;20513;-40
2021/09/29 07:41:46;;;;;;;9.10;6.27;;;11.10;99.90;;;;;;5083699;28;20511;-41
2021/09/29 07:44:17;;;;;;;7.70;6.90;;;11.20;99.90;;;;;;5083429;28;20451;-41
2021/09/29 07:46:50;;;;;;;6.30;5.43;;;11.20;99.90;;;;;;5082609;28;20507;-41
2021/09/29 07:49:24;;;;;;;9.57;6.60;;;11.20;99.90;;;;;;5082935;28;20492;-41
2021/09/29 07:51:57;;;;;;;14.03;6.83;;;11.20;99.90;;;;;;5083258;28;20519;-41
2021/09/29 07:54:29;;;;;;;20.63;7.00;;;11.20;99.90;;;;;;5078527;28;20471;-41
2021/09/29 07:57:00;;;;;;;9.37;6.10;;;11.20;99.90;;;;;;5083568;28;20489;-41
2021/09/29 07:59:33;;;;;;;8.40;5.60;;;11.20;99.90;;;;;;5064631;28;20476;-41
2021/09/29 08:02:05;;;;;;;7.20;5.90;;;11.20;99.90;;;;;;5062182;28;20871;-41
2021/09/29 08:04:38;;;;;;;11.10;6.77;;;11.10;99.90;;;;;;5061608;28;20463;-39
2021/09/29 08:07:13;;;;;;;8.73;5.73;;;11.00;99.90;;;;;;5062847;28;20452;-42
2021/09/29 08:09:44;;;;;;;9.50;5.73;;;11.00;99.90;;;;;;5063168;28;20428;-40
2021/09/29 08:12:15;;;;;;;9.43;7.50;;;10.90;99.90;;;;;;5063375;28;20488;-40
2021/09/29 08:14:46;;;;;;;10.37;6.67;;;10.80;99.90;;;;;;5062863;28;20887;-40
2021/09/29 08:17:17;;;;;;;10.60;6.07;;;10.80;99.90;;;;;;5062341;28;20520;-40
2021/09/29 08:19:49;;;;;;;10.00;6.33;;;10.70;99.90;;;;;;5062675;28;20516;-41
2021/09/29 08:22:21;;;;;;;7.70;5.87;;;10.70;99.90;;;;;;5077000;28;20479;-41
2021/09/29 08:24:58;;;;;;;9.73;6.40;;;10.70;99.90;;;;;;5064782;28;20507;-41
2021/09/29 08:27:36;;;;;;;9.37;6.30;;;10.60;99.90;;;;;;5063073;28;20432;-41
2021/09/29 08:30:19;;;;;;;10.73;5.90;;;10.70;99.90;;;;;;5062913;28;20443;-41
2021/09/29 08:32:55;;;;;;;7.30;5.20;;;10.60;99.90;;;;;;5062760;28;20624;-40
2021/09/29 08:35:32;;;;;;;7.97;5.33;;;10.60;99.90;;;;;;5070750;28;20459;-41
2021/09/29 08:38:06;;;;;;;8.90;5.40;;;10.70;99.90;;;;;;5082432;28;20439;-41
2021/09/29 08:40:49;;;;;;;5.70;5.07;;;10.70;99.90;;;;;;5083027;28;20470;-41
2021/09/29 08:43:31;;;;;;;9.97;5.00;;;10.70;99.90;;;;;;5082795;28;20447;-41
2021/09/29 08:46:05;;;;;;;11.67;5.70;;;10.80;99.90;;;;;;5082297;28;20447;-41
2021/09/29 08:48:41;;;;;;;7.60;5.10;;;10.70;99.90;;;;;;5082368;28;20423;-41
2021/09/29 08:51:50;;;;;;;8.77;4.67;;;10.80;99.90;;;;;;5082405;28;20538;-41
2021/09/29 08:54:37;;;;;;;7.20;4.40;;;10.80;99.90;;;;;;5074016;28;20503;-41
2021/09/29 08:57:24;;;;;;;7.30;4.73;;;10.90;99.90;;;;;;5062543;28;20464;-41
2021/09/29 09:17:14;;;;;;;6.47;4.40;;;10.90;99.90;;;;;;5020864;28;20454;-41
2021/09/29 09:19:45;;;;;;;6.13;3.80;;;11.00;99.90;;;;;;5023541;28;20477;-41
2021/09/29 09:22:18;;;;;;;4.90;4.07;;;11.00;99.90;;;;;;5022472;28;20479;-41
2021/09/29 09:24:56;;;;;;;7.40;4.00;;;11.10;99.90;;;;;;5023557;28;20457;-41
2021/09/29 09:27:37;;;;;;;9.93;4.23;;;11.10;99.90;;;;;;5023586;28;20477;-41
2021/09/29 09:30:09;;;;;;;6.70;3.33;;;11.10;99.90;;;;;;5023784;28;20925;-41
2021/09/29 09:32:49;;;;;;;7.33;3.90;;;11.10;99.90;;;;;;5022735;28;20489;-41
2021/09/29 09:35:23;;;;;;;7.77;3.87;;;11.10;99.90;;;;;;5007062;28;20447;-40
2021/09/29 09:37:56;;;;;;;4.87;3.50;;;11.20;99.90;;;;;;5007857;28;20550;-41
2021/09/29 09:40:32;;;;;;;6.00;3.83;;;11.20;99.90;;;;;;5023677;28;20450;-41
2021/09/29 09:43:05;;;;;;;8.40;3.77;;;11.20;99.90;;;;;;5023304;28;20456;-41
2021/09/29 09:45:44;;;;;;;9.70;4.20;;;11.20;99.90;;;;;;5022707;28;20465;-41
2021/09/29 09:48:17;;;;;;;3.73;3.43;;;11.10;99.90;;;;;;5022711;28;21038;-41
2021/09/29 09:50:48;;;;;;;5.37;3.43;;;11.10;99.90;;;;;;5022352;28;20458;-40
2021/09/29 09:53:19;;;;;;;6.57;4.13;;;11.10;99.90;;;;;;5048052;28;20574;-41
2021/09/29 09:55:51;;;;;;;8.87;4.37;;;11.10;99.90;;;;;;5065459;28;20451;-40
2021/09/29 09:58:22;;;;;;;5.23;4.03;;;11.10;99.90;;;;;;5065300;28;20479;-41
2021/09/29 10:01:02;;;;;;;8.35;4.10;;;11.10;99.90;;;;;;5064963;28;20498;-41
2021/09/29 10:03:33;;;;;;;7.50;3.50;;;11.10;99.90;;;;;;5064558;28;20295;-41
2021/09/29 10:06:07;;;;;;;5.00;3.70;;;11.10;99.90;;;;;;5064558;28;20507;-41
2021/09/29 10:08:44;;;;;;;11.83;5.00;;;11.10;99.90;;;;;;5065119;28;20448;-41
2021/09/29 10:11:20;;;;;;;5.10;4.23;;;11.10;99.90;;;;;;5065982;28;20811;-41
2021/09/29 10:28:11;;;;;;;8.77;4.70;;;10.90;99.90;;;;;;5082974;28;20452;-41
2021/09/29 10:30:51;;;;;;;6.43;4.80;;;10.80;99.90;;;;;;5081268;28;20749;-41
2021/09/29 10:33:26;;;;;;;9.17;5.33;;;10.70;99.90;;;;;;5063899;28;20922;-41
2021/09/29 10:36:20;;;;;;;6.60;4.33;;;10.70;99.90;;;;;;5064092;28;20440;-41
2021/09/29 10:41:59;;;;;;;5.50;4.40;;;10.50;99.90;;;;;;5084556;28;20427;-41
2021/09/29 10:47:40;;;;;;;5.93;4.23;;;10.30;99.90;;;;;;5083196;28;20458;-40
2021/09/29 10:50:52;;;;;;;7.00;4.97;;;10.30;99.90;;;;;;5084779;28;20435;-41
2021/09/29 11:05:15;;;;;;;6.72;4.72;;;10.00;99.90;;;;;;5082994;28;20236;-41
2021/09/29 11:07:57;;;;;;;5.30;4.80;;;10.00;99.90;;;;;;5063506;28;20213;-40
2021/09/29 11:30:51;;;;;;;7.45;4.40;;;9.80;99.90;;;;;;5162539;27;20598;-32
2021/09/29 11:33:30;;;;;;;4.72;3.92;;;9.80;99.90;;;;;;5161650;27;20186;-32
2021/09/29 11:36:15;;;;;;;8.02;4.78;;;9.70;99.90;;;;;;5162682;27;20254;-32
2021/09/29 11:39:12;;;;;;;6.80;4.30;;;9.70;99.90;;;;;;5161853;27;20190;-32
2021/09/29 12:10:17;;;;;;;8.45;5.38;;;9.30;99.90;;;;;;5078774;28;20233;-32
2021/09/29 12:12:52;;;;;;;8.73;4.95;;;9.20;99.90;;;;;;5077376;28;20263;-33
2021/09/29 12:15:23;;;;;;;7.75;5.20;;;9.30;99.90;;;;;;5077390;28;20283;-33
2021/09/29 12:17:54;;;;;;;11.30;5.63;;;9.10;99.90;;;;;;5076637;28;20213;-33
2021/09/29 12:20:28;;;;;;;6.10;4.20;;;9.20;99.90;;;;;;5085516;28;20248;-33
2021/09/29 12:23:02;;;;;;;8.00;4.75;;;9.10;99.90;;;;;;5140857;28;20525;-33
2021/09/29 12:25:37;;;;;;;8.15;4.53;;;9.10;99.90;;;;;;5140498;27;20241;-33
2021/09/29 12:28:19;;;;;;;9.07;4.82;;;9.10;99.90;;;;;;5140333;28;20203;-33
2021/09/29 12:31:30;;;;;;;5.28;3.90;;;9.10;99.90;;;;;;5141014;27;20254;-33
2021/09/29 12:34:14;;;;;;;7.13;5.03;;;9.10;99.90;;;;;;5141135;28;20187;-33
2021/09/29 12:36:46;;;;;;;6.72;4.03;;;9.10;99.90;;;;;;5142885;27;20199;-33
2021/09/29 12:39:22;;;;;;;6.03;4.25;;;9.00;99.90;;;;;;5160663;27;20227;-33
2021/09/29 12:41:56;;;;;;;8.85;4.68;;;8.90;99.90;;;;;;5148248;27;20534;-33
2021/09/29 12:44:27;;;;;;;7.05;4.50;;;8.90;99.90;;;;;;5147456;27;20222;-33
2021/09/29 12:47:07;;;;;;;11.02;4.80;;;8.90;99.90;;;;;;5146033;27;20207;-33
2021/09/29 12:49:38;;;;;;;7.03;4.28;;;8.90;99.90;;;;;;5146984;27;20233;-33
2021/09/29 12:52:12;;;;;;;5.65;4.35;;;8.90;99.90;;;;;;5147519;27;20203;-33
2021/09/29 12:54:47;;;;;;;4.45;4.05;;;8.80;99.90;;;;;;5146995;27;20285;-33
2021/09/29 12:57:20;;;;;;;5.20;4.70;;;8.80;99.90;;;;;;5145099;27;20217;-32
2021/09/29 12:59:51;;;;;;;4.35;3.90;;;8.80;99.90;;;;;;5147371;27;20203;-33
2021/09/29 13:02:22;;;;;;;9.55;4.70;;;8.70;99.90;;;;;;5146207;27;20231;-33
2021/09/29 13:04:54;;;;;;;8.93;4.50;;;8.70;99.90;;;;;;5146460;27;20681;-33
2021/09/29 13:07:26;;;;;;;5.80;4.05;;;8.70;99.90;;;;;;5147257;27;20191;-33
2021/09/29 13:09:57;;;;;;;6.10;4.90;;;8.70;99.90;;;;;;5147114;27;20326;-32
2021/09/29 13:12:29;;;;;;;9.63;5.00;;;8.60;99.90;;;;;;5146920;27;20199;-32
2021/09/29 13:15:00;;;;;;;6.88;4.68;;;8.60;99.90;;;;;;5146989;27;20233;-32
2021/09/29 13:17:31;;;;;;;8.48;4.45;;;8.60;99.90;;;;;;5146270;27;20681;-32
2021/09/29 13:20:02;;;;;;;9.40;5.85;;;8.60;99.90;;;;;;5146015;27;20203;-32
2021/09/29 13:22:36;;;;;;;9.73;5.25;;;8.60;99.90;;;;;;5147282;27;20191;-32
2021/09/29 13:36:36;;;;;;;6.95;4.25;;;8.50;99.90;;;;;;5105283;28;20209;-33
2021/09/29 13:39:12;;;;;;;5.20;4.18;;;8.50;99.90;;;;;;5105443;28;20243;-33
2021/09/29 13:41:44;;;;;;;6.05;4.72;;;8.40;99.90;;;;;;5105248;28;20204;-33
2021/09/29 13:44:15;;;;;;;10.35;5.15;;;8.40;99.90;;;;;;5105603;28;20659;-33
2021/09/29 13:46:46;;;;;;;9.07;4.75;;;8.30;99.90;;;;;;5105021;28;20205;-33
2021/09/29 13:49:17;;;;;;;5.45;4.35;;;8.40;99.90;;;;;;5104446;28;20238;-32
2021/09/29 13:51:51;;;;;;;7.75;4.65;;;8.30;99.90;;;;;;5104787;28;20579;-33
2021/09/29 13:54:25;;;;;;;7.53;4.88;;;8.30;99.90;;;;;;5104783;28;20239;-33
2021/09/29 13:57:00;;;;;;;5.20;4.55;;;8.30;99.90;;;;;;5104823;28;20224;-33
2021/09/29 13:59:42;;;;;;;8.82;5.38;;;8.30;99.90;;;;;;5104694;28;20215;-33
2021/09/29 14:30:29;;;;;;;7.00;5.22;;;8.50;99.90;;;;;;5134836;27;20269;-33
2021/09/29 14:33:02;;;;;;;540.60;84.38;;;8.60;99.90;;;;;;5138666;27;20195;-33
2021/09/29 14:35:34;;;;;;;6.38;5.00;;;8.60;99.90;;;;;;5145040;27;20230;-33
2021/09/29 14:38:05;;;;;;;17.45;6.70;;;8.80;99.90;;;;;;5145180;27;20194;-33
2021/09/29 14:40:36;;;;;;;7.45;5.20;;;8.80;99.90;;;;;;5144338;27;20207;-33
2021/09/29 14:43:09;;;;;;;16.58;6.45;;;8.90;99.90;;;;;;5143515;27;20196;-32
2021/09/29 14:45:40;;;;;;;9.90;6.43;;;9.00;99.90;;;;;;5143748;27;20977;-33
2021/09/29 14:48:11;;;;;;;8.70;5.30;;;8.90;99.90;;;;;;5143774;27;20271;-33
2021/09/29 14:50:43;;;;;;;9.75;5.63;;;9.10;99.90;;;;;;5144145;27;20254;-33
2021/09/29 14:53:14;;;;;;;20.65;6.97;;;9.20;99.90;;;;;;5143612;27;20191;-33
2021/09/29 14:55:48;;;;;;;6.60;5.68;;;9.30;99.90;;;;;;5144708;27;20234;-33
2021/09/29 14:58:23;;;;;;;5.95;5.13;;;9.50;99.90;;;;;;5143656;27;20225;-33
2021/09/29 15:00:54;;;;;;;7.20;5.40;;;9.60;99.90;;;;;;5143480;27;20219;-31
2021/09/29 15:03:25;;;;;;;44.45;10.90;;;9.60;99.90;;;;;;5137129;27;20275;-31
2021/09/29 15:05:57;;;;;;;297.25;44.92;;;9.70;99.90;;;;;;5141523;27;20195;-31
2021/09/29 15:08:28;;;;;;;19.30;9.55;;;9.80;99.90;;;;;;5144551;27;20236;-32
2021/09/29 15:10:59;;;;;;;7.32;5.00;;;10.00;99.90;;;;;;5139915;27;20318;-33
2021/09/29 15:13:37;;;;;;;5.78;4.85;;;10.10;99.90;;;;;;5140472;27;20638;-41
2021/09/29 15:16:16;;;;;;;9.35;5.78;;;10.20;99.90;;;;;;5141966;27;20326;-42
2021/09/29 15:18:54;;;;;;;8.37;5.73;;;10.30;99.90;;;;;;5142679;27;20206;-41
2021/09/29 15:24:39;;;;;;;9.60;5.30;;;10.50;99.90;;;;;;5149547;27;20355;-33
2021/09/29 15:27:40;;;;;;;5.67;4.63;;;10.70;99.90;;;;;;5137475;28;20452;-32
2021/09/29 15:47:26;;;;;;;5.20;4.50;;;12.40;99.90;;;;;;5035869;28;20472;-33
2021/09/29 15:50:16;;;;;;;6.80;4.40;;;12.60;99.90;;;;;;5039370;28;20470;-33
2021/09/29 15:53:01;;;;;;;9.73;4.07;;;12.80;99.90;;;;;;5055477;28;20444;-34
2021/09/29 15:55:40;;;;;;;6.07;4.40;;;13.10;99.90;;;;;;5055714;28;20455;-33
2021/09/29 16:01:09;;;;;;;4.40;3.60;;;14.10;99.90;;;;;;5055499;28;20511;-41
2021/09/29 16:06:43;;;;;;;3.50;1.93;;;16.70;99.90;;;;;;5054749;28;20452;-41